createdAt,value
2023-04-02T00:00:30.106Z,99973.48
2023-04-02T00:03:10.521Z,99967.36
2023-04-02T00:05:50.874Z,99966.31
2023-04-02T00:08:26.579Z,99965.54
2023-04-02T00:10:59.530Z,99970.45
2023-04-02T00:13:34.233Z,99974.54
2023-04-02T00:16:05.112Z,99973.58
2023-04-02T00:18:40.730Z,99979.02
2023-04-02T00:21:21.672Z,99977.56
2023-04-02T00:23:50.624Z,99987.45
2023-04-02T00:26:34.176Z,99978.88
2023-04-02T00:29:03.453Z,99988.54
2023-04-02T00:31:38.453Z,99985.38
2023-04-02T00:34:07.837Z,99989.95
2023-04-02T00:36:35.999Z,99989.92
2023-04-02T00:39:08.533Z,99994.14
2023-04-02T00:41:38.791Z,99999.29
2023-04-02T00:44:12.413Z,100002.99
2023-04-02T00:46:49.624Z,100006.45
2023-04-02T00:49:24.910Z,100003.33
2023-04-02T00:51:56.550Z,100005.63
2023-04-02T00:54:26.760Z,100009.19
2023-04-02T00:56:56.422Z,100006.55
2023-04-02T00:59:31.455Z,100005.31
2023-04-02T01:02:01.889Z,100004.52
2023-04-02T01:04:35.141Z,100004.10
2023-04-02T01:07:06.605Z,100001.10
2023-04-02T01:09:53.335Z,100000.86
2023-04-02T01:12:48.975Z,99999.01
2023-04-02T01:15:21.688Z,99998.33
2023-04-02T01:18:31.435Z,99992.68
2023-04-02T01:21:15.201Z,99988.89
2023-04-02T01:24:05.633Z,99988.94
2023-04-02T01:26:37.037Z,99983.14
2023-04-02T01:29:16.621Z,99979.95
2023-04-02T01:31:45.378Z,99984.04
2023-04-02T01:34:16.519Z,99984.33
2023-04-02T01:37:06.432Z,99984.66
2023-04-02T01:39:41.930Z,99989.16
2023-04-02T01:42:13.358Z,99987.05
2023-04-02T01:44:51.312Z,99984.83
2023-04-02T01:47:22.562Z,99982.64
2023-04-02T01:49:53.322Z,99977.17
2023-04-02T01:52:27.139Z,99974.52
2023-04-02T01:54:55.394Z,99971.89
2023-04-02T01:57:23.723Z,99971.29
2023-04-02T01:59:52.604Z,99969.42
2023-04-02T02:02:21.976Z,99965.49
2023-04-02T02:04:50.692Z,99960.73
2023-04-02T02:07:19.405Z,99958.94
2023-04-02T02:09:52.278Z,99954.69
2023-04-02T02:12:20.840Z,99953.19
2023-04-02T02:14:50.100Z,99952.38
2023-04-02T02:17:21.668Z,99946.34
2023-04-02T02:19:52.149Z,99944.04
2023-04-02T02:22:30.123Z,99941.95
2023-04-02T02:25:00.565Z,99943.09
2023-04-02T02:27:28.948Z,99935.63
2023-04-02T02:30:11.581Z,99934.41
2023-04-02T02:32:47.243Z,99932.86
2023-04-02T02:35:35.999Z,99925.98
2023-04-02T02:38:26.305Z,99921.83
2023-04-02T02:40:58.101Z,99921.59
2023-04-02T02:43:26.693Z,99918.60
2023-04-02T02:45:55.582Z,99920.29
2023-04-02T02:48:26.058Z,99914.38
2023-04-02T02:50:54.603Z,99910.26
2023-04-02T02:53:24.038Z,99908.67
2023-04-02T02:55:57.354Z,99907.94
2023-04-02T02:58:31.419Z,99905.54
2023-04-02T03:01:14.843Z,99908.70
2023-04-02T03:03:47.569Z,99902.27
2023-04-02T03:06:16.918Z,99905.55
2023-04-02T03:09:09.463Z,99906.27
2023-04-02T03:11:50.905Z,99897.50
2023-04-02T03:14:38.360Z,99896.17
2023-04-02T03:17:31.575Z,99892.85
2023-04-02T03:20:08.573Z,99890.54
2023-04-02T03:22:44.325Z,99885.98
2023-04-02T03:25:26.846Z,99884.54
2023-04-02T03:27:59.681Z,99883.31
2023-04-02T03:30:37.903Z,99884.03
2023-04-02T03:33:12.969Z,99881.67
2023-04-02T03:35:43.210Z,99879.10
2023-04-02T03:38:31.869Z,99871.14
2023-04-02T03:41:21.087Z,99871.94
2023-04-02T03:43:54.843Z,99874.91
2023-04-02T03:46:25.694Z,99869.10
2023-04-02T03:49:02.714Z,99867.47
2023-04-02T03:51:37.103Z,99867.27
2023-04-02T03:54:05.578Z,99868.19
2023-04-02T03:56:40.087Z,99867.80
2023-04-02T03:59:24.724Z,99866.05
2023-04-02T04:02:30.957Z,99866.37
2023-04-02T04:04:59.616Z,99870.31
2023-04-02T04:07:36.941Z,99865.04
2023-04-02T04:10:05.997Z,99866.34
2023-04-02T04:12:36.185Z,99868.39
2023-04-02T04:15:08.866Z,99872.88
2023-04-02T04:18:02.721Z,99873.71
2023-04-02T04:20:56.694Z,99875.14
2023-04-02T04:26:19.565Z,99878.70
2023-04-02T04:29:40.808Z,99877.34
2023-04-02T04:32:42.893Z,99875.89
2023-04-02T04:35:28.749Z,99876.15
2023-04-02T04:38:03.908Z,99876.56
2023-04-02T04:40:36.629Z,99876.84
2023-04-02T04:43:07.869Z,99877.11
2023-04-02T04:45:45.214Z,99877.97
2023-04-02T04:48:31.674Z,99879.63
2023-04-02T04:51:15.542Z,99875.52
2023-04-02T04:53:50.982Z,99878.89
2023-04-02T04:56:23.589Z,99870.89
2023-04-02T04:59:04.180Z,99873.53
2023-04-02T05:01:42.980Z,99876.69
2023-04-02T05:04:18.710Z,99872.54
2023-04-02T05:06:53.136Z,99875.65
2023-04-02T05:09:26.078Z,99868.66
2023-04-02T05:12:26.949Z,99867.61
2023-04-02T05:15:02.245Z,99865.88
2023-04-02T05:17:34.256Z,99864.38
2023-04-02T05:20:23.689Z,99862.15
2023-04-02T05:23:07.083Z,99859.26
2023-04-02T05:25:36.511Z,99861.66
2023-04-02T05:28:42.074Z,99855.42
2023-04-02T05:31:31.309Z,99853.91
2023-04-02T05:33:59.726Z,99851.58
2023-04-02T05:36:29.377Z,99854.94
2023-04-02T05:38:59.455Z,99849.98
2023-04-02T05:41:44.720Z,99854.00
2023-04-02T05:44:36.348Z,99851.16
2023-04-02T05:47:23.891Z,99850.95
2023-04-02T05:50:05.823Z,99848.69
2023-04-02T05:52:49.112Z,99848.56
2023-04-02T05:55:29.481Z,99848.86
2023-04-02T05:58:25.614Z,99853.35
2023-04-02T06:01:12.968Z,99854.17
2023-04-02T06:03:46.582Z,99850.83
2023-04-02T06:06:23.033Z,99851.30
2023-04-02T06:08:55.805Z,99855.05
2023-04-02T06:11:32.314Z,99852.21
2023-04-02T06:14:03.421Z,99850.81
2023-04-02T06:16:33.515Z,99845.61
2023-04-02T06:19:06.537Z,99841.05
2023-04-02T06:21:44.567Z,99838.52
2023-04-02T06:24:14.472Z,99838.51
2023-04-02T06:26:45.136Z,99844.63
2023-04-02T06:29:21.807Z,99838.98
2023-04-02T06:32:17.137Z,99844.05
2023-04-02T06:34:46.054Z,99838.59
2023-04-02T06:37:32.662Z,99842.44
2023-04-02T06:40:39.378Z,99848.40
2023-04-02T06:43:36.592Z,99844.15
2023-04-02T06:46:39.711Z,99846.74
2023-04-02T06:49:13.708Z,99839.05
2023-04-02T06:51:42.550Z,99838.36
2023-04-02T06:54:15.720Z,99837.33
2023-04-02T06:56:49.765Z,99834.80
2023-04-02T06:59:27.232Z,99838.59
2023-04-02T07:01:59.027Z,99838.90
2023-04-02T07:04:28.379Z,99835.19
2023-04-02T07:06:56.950Z,99833.05
2023-04-02T07:09:27.432Z,99830.04
2023-04-02T07:11:58.779Z,99831.48
2023-04-02T07:14:27.845Z,99832.66
2023-04-02T07:16:56.163Z,99829.00
2023-04-02T07:19:24.504Z,99826.59
2023-04-02T07:21:57.233Z,99829.73
2023-04-02T07:24:28.093Z,99827.03
2023-04-02T07:26:56.694Z,99827.05
2023-04-02T07:29:24.830Z,99819.88
2023-04-02T07:31:54.081Z,99823.73
2023-04-02T07:34:22.449Z,99824.04
2023-04-02T07:36:52.685Z,99821.15
2023-04-02T07:39:20.924Z,99823.04
2023-04-02T07:41:56.464Z,99826.02
2023-04-02T07:44:24.596Z,99825.21
2023-04-02T07:46:53.075Z,99821.02
2023-04-02T07:49:22.957Z,99820.20
2023-04-02T07:51:51.692Z,99818.21
2023-04-02T07:54:19.989Z,99818.07
2023-04-02T07:56:48.244Z,99816.73
2023-04-02T07:59:16.508Z,99815.59
2023-04-02T08:01:44.742Z,99818.78
2023-04-02T08:04:21.423Z,99819.21
2023-04-02T08:06:50.734Z,99817.38
2023-04-02T08:09:19.932Z,99818.45
2023-04-02T08:11:48.597Z,99818.38
2023-04-02T08:14:17.348Z,99822.80
2023-04-02T08:16:47.657Z,99823.11
2023-04-02T08:19:18.266Z,99820.88
2023-04-02T08:21:48.169Z,99820.88
2023-04-02T08:24:19.944Z,99821.38
2023-04-02T08:26:49.465Z,99820.55
2023-04-02T08:29:17.668Z,99816.92
2023-04-02T08:31:47.260Z,99813.21
2023-04-02T08:34:15.545Z,99814.61
2023-04-02T08:36:44.119Z,99810.86
2023-04-02T08:39:12.825Z,99813.18
2023-04-02T08:42:07.194Z,99818.55
2023-04-02T08:47:49.434Z,99812.85
2023-04-02T08:50:36.912Z,99811.05
2023-04-02T08:53:07.181Z,99807.84
2023-04-02T08:55:42.830Z,99812.89
2023-04-02T08:58:14.089Z,99809.14
2023-04-02T09:00:44.195Z,99810.89
2023-04-02T09:03:21.986Z,99807.39
2023-04-02T09:05:54.290Z,99806.67
2023-04-02T09:08:25.570Z,99810.13
2023-04-02T09:11:01.018Z,99803.83
2023-04-02T09:13:42.062Z,99806.96
2023-04-02T09:16:11.366Z,99801.00
2023-04-02T09:18:39.805Z,99806.06
2023-04-02T09:21:22.544Z,99807.46
2023-04-02T09:23:51.046Z,99808.02
2023-04-02T09:26:27.737Z,99808.09
2023-04-02T09:29:08.150Z,99810.80
2023-04-02T09:31:51.079Z,99807.69
2023-04-02T09:34:36.213Z,99804.76
2023-04-02T09:37:25.456Z,99809.30
2023-04-02T09:39:54.203Z,99808.48
2023-04-02T09:42:36.380Z,99806.93
2023-04-02T09:45:25.176Z,99804.81
2023-04-02T09:47:53.496Z,99807.33
2023-04-02T09:50:22.020Z,99808.09
2023-04-02T09:52:51.496Z,99807.92
2023-04-02T09:55:22.432Z,99810.38
2023-04-02T09:57:51.271Z,99811.99
2023-04-02T10:00:32.426Z,99810.58
2023-04-02T10:03:29.957Z,99815.86
2023-04-02T10:06:06.554Z,99812.23
2023-04-02T10:08:41.583Z,99813.17
2023-04-02T10:11:14.872Z,99812.04
2023-04-02T10:13:59.255Z,99812.30
2023-04-02T10:16:36.125Z,99814.36
2023-04-02T10:19:13.441Z,99814.51
2023-04-02T10:21:44.293Z,99815.50
2023-04-02T10:24:14.036Z,99816.10
2023-04-02T10:27:02.032Z,99814.60
2023-04-02T10:30:09.123Z,99813.50
2023-04-02T10:32:39.477Z,99817.55
2023-04-02T10:35:07.904Z,99818.63
2023-04-02T10:37:49.702Z,99820.79
2023-04-02T10:40:23.476Z,99823.39
2023-04-02T10:43:22.715Z,99827.52
2023-04-02T10:46:11.471Z,99830.19
2023-04-02T10:49:04.183Z,99828.71
2023-04-02T10:51:44.112Z,99827.14
2023-04-02T10:54:43.922Z,99825.09
2023-04-02T10:57:29.525Z,99827.60
2023-04-02T11:00:09.915Z,99833.05
2023-04-02T11:03:03.031Z,99835.79
2023-04-02T11:05:53.683Z,99834.02
2023-04-02T11:08:31.781Z,99833.42
2023-04-02T11:11:07.973Z,99833.24
2023-04-02T11:14:06.425Z,99841.05
2023-04-02T11:16:37.763Z,99838.73
2023-04-02T11:19:09.486Z,99840.70
2023-04-02T11:21:51.095Z,99841.42
2023-04-02T11:24:33.092Z,99840.11
2023-04-02T11:27:12.273Z,99842.07
2023-04-02T11:29:54.288Z,99841.14
2023-04-02T11:32:24.235Z,99841.17
2023-04-02T11:35:05.771Z,99845.81
2023-04-02T11:37:35.155Z,99845.01
2023-04-02T11:40:41.669Z,99843.42
2023-04-02T11:43:32.919Z,99844.48
2023-04-02T11:46:21.402Z,99846.23
2023-04-02T11:48:51.466Z,99850.78
2023-04-02T11:51:23.123Z,99848.61
2023-04-02T11:53:58.448Z,99845.86
2023-04-02T11:56:49.077Z,99843.21
2023-04-02T11:59:55.104Z,99842.02
2023-04-02T12:02:37.420Z,99840.48
2023-04-02T12:05:37.428Z,99838.39
2023-04-02T12:08:08.946Z,99838.99
2023-04-02T12:10:58.537Z,99837.38
2023-04-02T12:13:42.019Z,99836.31
2023-04-02T12:16:13.198Z,99840.45
2023-04-02T12:18:56.665Z,99841.88
2023-04-02T12:21:27.610Z,99847.67
2023-04-02T12:23:58.118Z,99845.02
2023-04-02T12:26:46.666Z,99844.16
2023-04-02T12:29:27.501Z,99842.55
2023-04-02T12:31:57.049Z,99846.18
2023-04-02T12:34:30.085Z,99846.86
2023-04-02T12:37:02.820Z,99849.14
2023-04-02T12:39:32.492Z,99854.92
2023-04-02T12:42:01.542Z,99854.30
2023-04-02T12:44:30.553Z,99856.60
2023-04-02T12:46:58.649Z,99853.55
2023-04-02T12:49:40.293Z,99854.58
2023-04-02T12:52:13.410Z,99854.19
2023-04-02T12:54:48.731Z,99857.02
2023-04-02T12:57:27.262Z,99858.84
2023-04-02T12:59:57.613Z,99857.42
2023-04-02T13:02:30.053Z,99855.56
2023-04-02T13:05:03.377Z,99852.08
2023-04-02T13:07:32.820Z,99854.17
2023-04-02T13:10:03.123Z,99852.80
2023-04-02T13:12:41.400Z,99858.77
2023-04-02T13:15:25.086Z,99854.51
2023-04-02T13:18:13.639Z,99857.80
2023-04-02T13:20:43.508Z,99860.66
2023-04-02T13:23:30.023Z,99858.55
2023-04-02T13:26:22.367Z,99859.84
2023-04-02T13:29:24.487Z,99861.29
2023-04-02T13:31:54.186Z,99863.45
2023-04-02T13:34:22.752Z,99865.81
2023-04-02T13:36:57.294Z,99865.42
2023-04-02T13:39:25.563Z,99866.65
2023-04-02T13:41:58.550Z,99868.27
2023-04-02T13:44:28.324Z,99868.64
2023-04-02T13:46:56.899Z,99868.91
2023-04-02T13:49:26.390Z,99867.05
2023-04-02T13:51:58.813Z,99868.45
2023-04-02T13:54:35.062Z,99868.02
2023-04-02T13:57:03.454Z,99868.69
2023-04-02T13:59:32.028Z,99870.16
2023-04-02T14:02:07.238Z,99865.61
2023-04-02T14:04:39.391Z,99867.48
2023-04-02T14:07:26.335Z,99866.38
2023-04-02T14:10:11.343Z,99864.74
2023-04-02T14:12:50.449Z,99868.34
2023-04-02T14:15:40.544Z,99868.48
2023-04-02T14:18:41.421Z,99870.02
2023-04-02T14:21:12.500Z,99868.98
2023-04-02T14:24:16.231Z,99866.04
2023-04-02T14:27:07.574Z,99867.83
2023-04-02T14:29:46.239Z,99868.23
2023-04-02T14:32:27.364Z,99871.98
2023-04-02T14:35:17.329Z,99873.56
2023-04-02T14:38:06.693Z,99870.43
2023-04-02T14:40:46.513Z,99875.27
2023-04-02T14:43:25.270Z,99877.34
2023-04-02T14:46:01.804Z,99878.73
2023-04-02T14:48:48.917Z,99882.67
2023-04-02T14:51:25.414Z,99886.66
2023-04-02T14:54:06.598Z,99887.88
2023-04-02T14:56:39.539Z,99890.45
2023-04-02T14:59:33.532Z,99891.63
2023-04-02T15:02:16.862Z,99891.79
2023-04-02T15:05:10.116Z,99896.98
2023-04-02T15:11:18.483Z,99894.02
2023-04-02T15:14:03.219Z,99895.34
2023-04-02T15:19:49.163Z,99903.19
2023-04-02T15:23:33.242Z,99903.96
2023-04-02T15:30:18.859Z,99907.94
2023-04-02T15:32:49.095Z,99911.89
2023-04-02T15:35:27.404Z,99915.51
2023-04-02T15:38:13.450Z,99915.67
2023-04-02T15:41:08.835Z,99915.96
2023-04-02T15:43:56.860Z,99914.75
2023-04-02T15:47:00.433Z,99916.31
2023-04-02T15:49:41.279Z,99921.89
2023-04-02T15:52:11.576Z,99924.61
2023-04-02T15:54:49.432Z,99926.08
2023-04-02T15:57:26.996Z,99931.81
2023-04-02T16:00:17.209Z,99931.55
2023-04-02T16:03:27.947Z,99930.02
2023-04-02T16:06:11.006Z,99931.85
2023-04-02T16:08:39.845Z,99930.63
2023-04-02T16:11:12.663Z,99929.25
2023-04-02T16:13:44.577Z,99931.84
2023-04-02T16:16:34.997Z,99934.28
2023-04-02T16:19:24.618Z,99938.67
2023-04-02T16:22:21.535Z,99939.78
2023-04-02T16:24:53.559Z,99940.48
2023-04-02T16:27:27.605Z,99939.98
2023-04-02T16:30:17.302Z,99940.94
2023-04-02T16:33:02.936Z,99944.05
2023-04-02T16:36:13.228Z,99943.64
2023-04-02T16:38:57.720Z,99944.04
2023-04-02T16:41:44.730Z,99945.89
2023-04-02T16:44:32.316Z,99949.30
2023-04-02T16:47:24.419Z,99950.23
2023-04-02T16:50:30.130Z,99952.09
2023-04-02T16:53:08.139Z,99958.14
2023-04-02T16:55:46.417Z,99957.33
2023-04-02T16:58:43.786Z,99960.76
2023-04-02T17:01:30.849Z,99959.84
2023-04-02T17:04:16.035Z,99967.70
2023-04-02T17:07:07.426Z,99971.42
2023-04-02T17:09:51.649Z,99977.27
2023-04-02T17:12:23.802Z,99980.59
2023-04-02T17:14:58.842Z,99986.69
2023-04-02T17:17:26.988Z,99987.50
2023-04-02T17:20:00.720Z,99995.52
2023-04-02T17:22:29.240Z,99999.23
2023-04-02T17:24:58.598Z,100001.11
2023-04-02T17:27:37.794Z,99999.59
2023-04-02T17:30:24.674Z,100001.45
2023-04-02T17:32:55.347Z,100003.00
2023-04-02T17:35:34.179Z,100007.05
2023-04-02T17:38:23.719Z,100005.33
2023-04-02T17:41:02.229Z,100011.77
2023-04-02T17:43:58.634Z,100011.00
2023-04-02T17:46:37.860Z,100012.99
2023-04-02T17:49:33.503Z,100010.86
2023-04-02T17:52:06.940Z,100012.61
2023-04-02T17:54:50.416Z,100018.80
2023-04-02T17:57:32.230Z,100019.37
2023-04-02T18:00:09.798Z,100018.30
2023-04-02T18:03:18.746Z,100013.85
2023-04-02T18:06:07.257Z,100015.08
2023-04-02T18:08:54.723Z,100016.70
2023-04-02T18:11:36.113Z,100015.83
2023-04-02T18:14:34.568Z,100016.40
2023-04-02T18:17:14.962Z,100008.37
2023-04-02T18:19:50.902Z,100008.82
2023-04-02T18:22:38.420Z,100006.17
2023-04-02T18:25:30.920Z,100002.89
2023-04-02T18:28:27.071Z,100000.09
2023-04-02T18:30:59.981Z,99998.45
2023-04-02T18:33:57.006Z,99995.42
2023-04-02T18:36:46.607Z,99990.94
2023-04-02T18:39:23.706Z,99989.14
2023-04-02T18:42:30.769Z,99993.67
2023-04-02T18:45:00.230Z,99990.17
2023-04-02T18:47:42.086Z,99997.55
2023-04-02T18:50:17.508Z,99999.78
2023-04-02T18:52:46.005Z,100011.08
2023-04-02T18:55:14.112Z,100012.89
2023-04-02T18:57:42.593Z,100014.90
2023-04-02T19:00:44.324Z,100021.30
2023-04-02T19:03:18.636Z,100024.28
2023-04-02T19:05:51.572Z,100029.27
2023-04-02T19:08:28.350Z,100032.98
2023-04-02T19:11:28.728Z,100034.41
2023-04-02T19:14:00.998Z,100041.87
2023-04-02T19:16:54.841Z,100040.70
2023-04-02T19:19:27.202Z,100044.56
2023-04-02T19:22:16.935Z,100044.52
2023-04-02T19:25:00.203Z,100045.88
2023-04-02T19:27:37.131Z,100046.12
2023-04-02T19:30:26.964Z,100049.02
2023-04-02T19:33:18.809Z,100051.33
2023-04-02T19:36:20.078Z,100050.86
2023-04-02T19:39:12.592Z,100052.48
2023-04-02T19:41:54.236Z,100051.91
2023-04-02T19:44:22.493Z,100055.04
2023-04-02T19:46:51.849Z,100056.98
2023-04-02T19:49:30.931Z,100058.63
2023-04-02T19:51:59.201Z,100060.66
2023-04-02T19:54:27.485Z,100062.23
2023-04-02T19:56:55.725Z,100066.11
2023-04-02T19:59:25.502Z,100065.13
2023-04-02T20:01:53.935Z,100069.35
2023-04-02T20:04:22.075Z,100066.75
2023-04-02T20:06:54.568Z,100071.70
2023-04-02T20:09:23.632Z,100071.46
2023-04-02T20:11:51.856Z,100073.77
2023-04-02T20:14:21.482Z,100077.22
2023-04-02T20:16:50.053Z,100075.23
2023-04-02T20:19:18.184Z,100077.44
2023-04-02T20:21:49.403Z,100075.19
2023-04-02T20:24:17.829Z,100074.98
2023-04-02T20:26:46.018Z,100078.09
2023-04-02T20:29:14.350Z,100076.27
2023-04-02T20:31:42.818Z,100078.02
2023-04-02T20:34:11.111Z,100077.98
2023-04-02T20:36:40.440Z,100077.89
2023-04-02T20:39:09.230Z,100076.77
2023-04-02T20:41:37.714Z,100076.67
2023-04-02T20:44:09.570Z,100073.55
2023-04-02T20:46:38.052Z,100074.70
2023-04-02T20:49:06.341Z,100074.80
2023-04-02T20:51:35.412Z,100074.13
2023-04-02T20:54:04.356Z,100074.84
2023-04-02T20:56:37.702Z,100076.63
2023-04-02T20:59:07.357Z,100077.85
2023-04-02T21:01:36.114Z,100080.60
2023-04-02T21:04:04.660Z,100079.61
2023-04-02T21:06:35.085Z,100079.06
2023-04-02T21:09:07.715Z,100078.55
2023-04-02T21:11:36.936Z,100078.34
2023-04-02T21:14:05.600Z,100073.03
2023-04-02T21:16:34.088Z,100078.64
2023-04-02T21:19:04.469Z,100082.77
2023-04-02T21:21:33.185Z,100084.95
2023-04-02T21:24:06.102Z,100087.39
2023-04-02T21:26:36.482Z,100088.63
2023-04-02T21:29:05.509Z,100090.02
2023-04-02T21:31:35.754Z,100092.42
2023-04-02T21:34:04.638Z,100091.86
2023-04-02T21:36:35.141Z,100092.84
2023-04-02T21:39:06.679Z,100091.86
2023-04-02T21:41:41.175Z,100092.48
2023-04-02T21:44:12.468Z,100093.41
2023-04-02T21:46:44.219Z,100091.87
2023-04-02T21:49:14.569Z,100092.77
2023-04-02T21:51:43.269Z,100089.73
2023-04-02T21:54:11.593Z,100089.22
2023-04-02T21:56:44.258Z,100089.80
2023-04-02T21:59:13.812Z,100086.61
2023-04-02T22:01:44.032Z,100088.77
2023-04-02T22:04:18.467Z,100086.59
2023-04-02T22:06:46.793Z,100093.38
2023-04-02T22:09:17.044Z,100092.84
2023-04-02T22:11:50.848Z,100094.35
2023-04-02T22:14:18.994Z,100090.80
2023-04-02T22:16:47.193Z,100093.75
2023-04-02T22:19:21.613Z,100092.08
2023-04-02T22:21:50.684Z,100088.35
2023-04-02T22:24:27.232Z,100092.02
2023-04-02T22:26:55.609Z,100088.77
2023-04-02T22:29:23.886Z,100092.48
2023-04-02T22:31:52.012Z,100092.52
2023-04-02T22:34:21.075Z,100091.20
2023-04-02T22:36:49.145Z,100093.92
2023-04-02T22:39:17.468Z,100095.94
2023-04-02T22:41:46.236Z,100100.45
2023-04-02T22:44:15.423Z,100102.74
2023-04-02T22:46:43.724Z,100102.53
2023-04-02T22:49:11.954Z,100099.66
2023-04-02T22:51:40.173Z,100098.00
2023-04-02T22:54:08.703Z,100100.19
2023-04-02T22:56:37.663Z,100096.17
2023-04-02T22:59:06.007Z,100098.52
2023-04-02T23:01:35.004Z,100098.14
2023-04-02T23:04:05.176Z,100098.84
2023-04-02T23:06:35.078Z,100098.40
2023-04-02T23:09:04.217Z,100101.30
2023-04-02T23:11:35.565Z,100103.31
2023-04-02T23:14:03.741Z,100102.59
2023-04-02T23:16:31.931Z,100106.09
2023-04-02T23:19:00.588Z,100107.33
2023-04-02T23:21:29.366Z,100109.56
2023-04-02T23:23:57.547Z,100106.85
2023-04-02T23:26:31.467Z,100103.88
2023-04-02T23:28:59.776Z,100102.71
2023-04-02T23:31:28.025Z,100105.68
2023-04-02T23:33:56.291Z,100104.68
2023-04-02T23:36:26.251Z,100105.34
2023-04-02T23:38:56.914Z,100104.59
2023-04-02T23:41:27.007Z,100104.59
2023-04-02T23:43:55.980Z,100108.86
2023-04-02T23:46:24.801Z,100108.66
2023-04-02T23:48:53.442Z,100107.27
2023-04-02T23:51:22.166Z,100108.67
2023-04-02T23:53:50.814Z,100109.83
2023-04-02T23:56:21.736Z,100110.84
2023-04-02T23:58:50.441Z,100111.73
